Time,TemperatureF,DewpointF,PressureIn,WindDirection,WindDirectionDegrees,WindSpeedMPH,WindSpeedGustMPH,Humidity,HourlyPrecipIn,Conditions,Clouds,dailyrainin,SoftwareType,DateUTC
2013-03-23 01:52:00,56.0,31.0,29.74,WSW,248,3.0,7.0,38,0.00,,,0.00,,2013-03-22 23:52:00,
2013-03-23 02:00:00,56.0,31.0,29.74,NNE,14,0.0,6.0,39,0.00,,,0.00,,2013-03-23 00:00:00,
2013-03-23 02:02:00,56.0,31.0,29.74,WSW,248,3.0,7.0,38,0.00,,,0.00,,2013-03-23 00:02:00,
2013-03-23 02:12:00,56.0,31.0,29.74,WSW,248,3.0,7.0,38,0.00,,,0.00,,2013-03-23 00:12:00,
2013-03-23 02:22:00,56.0,31.0,29.74,NNE,14,0.0,6.0,39,0.00,,,0.00,,2013-03-23 00:22:00,
2013-03-23 02:32:00,56.0,31.0,29.74,NNE,14,0.0,6.0,39,0.00,,,0.00,,2013-03-23 00:32:00,
2013-03-23 02:42:00,56.0,31.0,29.74,NNE,14,0.0,6.0,39,0.00,,,0.00,,2013-03-23 00:42:00,
2013-03-23 02:52:00,56.0,31.0,29.74,NNE,14,0.0,6.0,39,0.00,,,0.00,,2013-03-23 00:52:00,
2013-03-23 03:52:00,55.0,31.0,29.77,NNW,346,3.0,6.0,39,0.00,,,0.00,,2013-03-23 01:52:00,
2013-03-23 04:02:00,55.0,31.0,29.77,NNW,346,3.0,6.0,39,0.00,,,0.00,,2013-03-23 02:02:00,
2013-03-23 04:12:00,55.0,31.0,29.77,NNW,346,3.0,6.0,39,0.00,,,0.00,,2013-03-23 02:12:00,
2013-03-23 04:22:00,55.0,31.0,29.77,North,353,1.0,6.0,39,0.00,,,0.00,,2013-03-23 02:22:00,
2013-03-23 04:30:00,54.0,30.0,29.80,North,353,3.0,3.0,39,0.00,,,0.00,,2013-03-23 02:30:00,
2013-03-23 04:31:00,55.0,31.0,29.77,North,353,1.0,6.0,39,0.00,,,0.00,,2013-03-23 02:31:00,
2013-03-23 04:42:00,55.0,31.0,29.77,North,353,1.0,6.0,39,0.00,,,0.00,,2013-03-23 02:42:00,
2013-03-23 04:52:00,54.0,30.0,29.80,North,353,3.0,3.0,39,0.00,,,0.00,,2013-03-23 02:52:00,
2013-03-23 05:01:00,54.0,30.0,29.80,North,353,3.0,3.0,39,0.00,,,0.00,,2013-03-23 03:01:00,
2013-03-23 05:12:00,54.0,30.0,29.80,North,353,3.0,3.0,39,0.00,,,0.00,,2013-03-23 03:12:00,
2013-03-23 05:22:00,54.0,30.0,29.80,North,353,3.0,3.0,39,0.00,,,0.00,,2013-03-23 03:22:00,
2013-03-23 05:53:00,53.0,28.0,29.80,North,2,0.0,0.0,38,0.00,,,0.00,,2013-03-23 03:53:00,
2013-03-23 06:00:00,53.0,28.0,29.83,NW,319,3.0,5.0,38,0.00,,,0.00,,2013-03-23 04:00:00,
2013-03-23 06:02:00,53.0,28.0,29.80,North,2,0.0,0.0,38,0.00,,,0.00,,2013-03-23 04:02:00,
2013-03-23 06:12:00,53.0,28.0,29.80,North,2,0.0,0.0,38,0.00,,,0.00,,2013-03-23 04:12:00,
2013-03-23 06:22:00,53.0,28.0,29.83,NW,319,3.0,5.0,38,0.00,,,0.00,,2013-03-23 04:22:00,
2013-03-23 06:32:00,53.0,28.0,29.83,NW,319,3.0,5.0,38,0.00,,,0.00,,2013-03-23 04:32:00,
2013-03-23 06:43:00,53.0,28.0,29.83,NW,319,3.0,5.0,38,0.00,,,0.00,,2013-03-23 04:43:00,
2013-03-23 06:53:00,53.0,28.0,29.83,NW,319,3.0,5.0,38,0.00,,,0.00,,2013-03-23 04:53:00,
2013-03-23 08:52:00,56.0,29.0,29.88,NE,43,0.0,7.0,36,0.00,,,0.00,,2013-03-23 06:52:00,
2013-03-23 09:00:00,56.0,29.0,29.88,NNW,330,3.0,6.0,36,0.00,,,0.00,,2013-03-23 07:00:00,
2013-03-23 09:02:00,56.0,29.0,29.88,NE,43,0.0,7.0,36,0.00,,,0.00,,2013-03-23 07:02:00,
2013-03-23 09:12:00,56.0,29.0,29.88,NE,43,0.0,7.0,36,0.00,,,0.00,,2013-03-23 07:12:00,
2013-03-23 09:22:00,56.0,29.0,29.88,NNW,330,3.0,6.0,36,0.00,,,0.00,,2013-03-23 07:22:00,
2013-03-23 09:32:00,56.0,29.0,29.88,NNW,330,3.0,6.0,36,0.00,,,0.00,,2013-03-23 07:32:00,
2013-03-23 09:42:00,56.0,29.0,29.88,NNW,330,3.0,6.0,36,0.00,,,0.00,,2013-03-23 07:42:00,
2013-03-23 09:52:00,56.0,29.0,29.88,NNW,330,3.0,6.0,36,0.00,,,0.00,,2013-03-23 07:52:00,
2013-03-23 10:30:00,59.0,30.0,29.88,ENE,75,2.0,9.0,33,0.00,,,0.04,,2013-03-23 08:30:00,
2013-03-23 10:52:00,59.0,30.0,29.88,ENE,75,2.0,9.0,33,0.00,,,0.04,,2013-03-23 08:52:00,
2013-03-23 11:02:00,59.0,30.0,29.88,ENE,75,2.0,9.0,33,0.00,,,0.04,,2013-03-23 09:02:00,
2013-03-23 11:12:00,59.0,30.0,29.88,ENE,75,2.0,9.0,33,0.00,,,0.04,,2013-03-23 09:12:00,
2013-03-23 11:21:00,59.0,30.0,29.88,ENE,75,2.0,9.0,33,0.00,,,0.04,,2013-03-23 09:21:00,
2013-03-23 12:24:00,61.0,33.0,29.88,West,275,7.0,12.0,35,0.00,,,0.04,,2013-03-23 10:24:00,
2013-03-23 12:30:00,63.0,34.0,29.88,West,275,7.0,12.0,34,0.00,,,0.04,,2013-03-23 10:30:00,
2013-03-23 12:34:00,61.0,33.0,29.88,West,275,7.0,12.0,35,0.00,,,0.04,,2013-03-23 10:34:00,
2013-03-23 12:43:00,61.0,33.0,29.88,West,275,7.0,12.0,35,0.00,,,0.04,,2013-03-23 10:43:00,
2013-03-23 12:52:00,63.0,34.0,29.88,West,275,7.0,12.0,34,0.00,,,0.04,,2013-03-23 10:52:00,
2013-03-23 13:02:00,63.0,34.0,29.88,West,275,7.0,12.0,34,0.00,,,0.04,,2013-03-23 11:02:00,
2013-03-23 13:12:00,63.0,34.0,29.88,West,275,7.0,12.0,34,0.00,,,0.04,,2013-03-23 11:12:00,
2013-03-23 13:21:00,63.0,34.0,29.88,West,275,7.0,12.0,34,0.00,,,0.04,,2013-03-23 11:21:00,
2013-03-23 14:00:00,67.0,37.0,29.88,West,275,5.0,12.0,33,0.00,,,0.04,,2013-03-23 12:00:00,
2013-03-23 14:22:00,67.0,37.0,29.88,West,275,5.0,12.0,33,0.00,,,0.04,,2013-03-23 12:22:00,
2013-03-23 14:33:00,67.0,37.0,29.88,West,275,5.0,12.0,33,0.00,,,0.04,,2013-03-23 12:33:00,
2013-03-23 14:43:00,67.0,37.0,29.88,West,275,5.0,12.0,33,0.00,,,0.04,,2013-03-23 12:43:00,
2013-03-23 14:52:00,67.0,37.0,29.88,West,275,5.0,12.0,33,0.00,,,0.04,,2013-03-23 12:52:00,
2013-03-23 15:00:00,92.0,48.0,29.85,SW,217,5.0,12.0,22,0.00,,,0.04,,2013-03-23 13:00:00,
2013-03-23 15:23:00,92.0,48.0,29.85,SW,217,5.0,12.0,22,0.00,,,0.04,,2013-03-23 13:23:00,
2013-03-23 15:33:00,92.0,48.0,29.85,SW,217,5.0,12.0,22,0.00,,,0.04,,2013-03-23 13:33:00,
2013-03-23 15:43:00,92.0,48.0,29.85,SW,217,5.0,12.0,22,0.00,,,0.04,,2013-03-23 13:43:00,
2013-03-23 15:53:00,92.0,48.0,29.85,SW,217,5.0,12.0,22,0.00,,,0.04,,2013-03-23 13:53:00,
2013-03-23 16:23:00,71.0,36.0,29.85,WSW,242,6.0,13.0,28,0.00,,,0.04,,2013-03-23 14:23:00,
2013-03-23 16:33:00,71.0,36.0,29.85,WSW,242,6.0,13.0,28,0.00,,,0.04,,2013-03-23 14:33:00,
2013-03-23 16:43:00,71.0,36.0,29.85,WSW,242,6.0,13.0,28,0.00,,,0.04,,2013-03-23 14:43:00,
2013-03-23 16:52:00,65.0,36.0,29.85,SW,224,6.0,12.0,34,0.00,,,0.04,,2013-03-23 14:52:00,
2013-03-23 17:00:00,70.0,41.0,29.85,SW,232,7.0,14.0,35,0.00,,,0.04,,2013-03-23 15:00:00,
2013-03-23 17:02:00,65.0,36.0,29.85,SW,224,6.0,12.0,34,0.00,,,0.04,,2013-03-23 15:02:00,
2013-03-23 17:12:00,65.0,36.0,29.85,SW,224,6.0,12.0,34,0.00,,,0.04,,2013-03-23 15:12:00,
2013-03-23 17:22:00,70.0,41.0,29.85,SW,232,7.0,14.0,35,0.00,,,0.04,,2013-03-23 15:22:00,
2013-03-23 17:32:00,70.0,41.0,29.85,SW,232,7.0,14.0,35,0.00,,,0.04,,2013-03-23 15:32:00,
2013-03-23 17:44:00,70.0,41.0,29.85,SW,232,7.0,14.0,35,0.00,,,0.04,,2013-03-23 15:44:00,
2013-03-23 17:52:00,70.0,41.0,29.85,SW,232,7.0,14.0,35,0.00,,,0.04,,2013-03-23 15:52:00,
2013-03-23 18:23:00,72.0,41.0,29.88,SSW,207,7.0,12.0,33,0.00,,,0.04,,2013-03-23 16:23:00,
2013-03-23 18:30:00,62.0,39.0,29.88,SSW,195,6.0,13.0,42,0.00,,,0.04,,2013-03-23 16:30:00,
2013-03-23 18:33:00,72.0,41.0,29.88,SSW,207,7.0,12.0,33,0.00,,,0.04,,2013-03-23 16:33:00,
2013-03-23 18:43:00,72.0,41.0,29.88,SSW,207,7.0,12.0,33,0.00,,,0.04,,2013-03-23 16:43:00,
2013-03-23 18:53:00,62.0,39.0,29.88,SSW,195,6.0,13.0,42,0.00,,,0.04,,2013-03-23 16:53:00,
2013-03-23 19:02:00,62.0,39.0,29.88,SSW,195,6.0,13.0,42,0.00,,,0.04,,2013-03-23 17:02:00,
2013-03-23 19:11:00,62.0,39.0,29.88,SSW,195,6.0,13.0,42,0.00,,,0.04,,2013-03-23 17:11:00,
2013-03-23 19:21:00,62.0,39.0,29.88,SSW,195,6.0,13.0,42,0.00,,,0.04,,2013-03-23 17:21:00,
2013-03-23 19:53:00,60.0,39.0,29.88,SW,221,5.0,12.0,46,0.00,,,0.04,,2013-03-23 17:53:00,
2013-03-23 20:12:00,60.0,39.0,29.88,SW,221,5.0,12.0,46,0.00,,,0.04,,2013-03-23 18:12:00,
2013-03-23 20:22:00,60.0,39.0,29.91,WSW,246,3.0,7.0,46,0.00,,,0.04,,2013-03-23 18:22:00,
2013-03-23 20:31:00,60.0,39.0,29.91,WSW,246,3.0,7.0,46,0.00,,,0.04,,2013-03-23 18:31:00,
2013-03-23 20:43:00,60.0,39.0,29.91,WSW,246,3.0,7.0,46,0.00,,,0.04,,2013-03-23 18:43:00,
2013-03-23 20:52:00,60.0,40.0,29.91,North,7,2.0,7.0,47,0.00,,,0.04,,2013-03-23 18:52:00,
2013-03-23 21:02:00,60.0,40.0,29.91,North,7,2.0,7.0,47,0.00,,,0.04,,2013-03-23 19:02:00,
2013-03-23 21:12:00,60.0,40.0,29.91,North,7,2.0,7.0,47,0.00,,,0.04,,2013-03-23 19:12:00,
2013-03-23 21:22:00,59.0,39.0,29.91,East,86,4.0,7.0,47,0.00,,,0.04,,2013-03-23 19:22:00,
2013-03-23 21:32:00,59.0,39.0,29.91,East,86,4.0,7.0,47,0.00,,,0.04,,2013-03-23 19:32:00,
2013-03-23 21:43:00,59.0,39.0,29.91,East,86,4.0,7.0,47,0.00,,,0.04,,2013-03-23 19:43:00,
2013-03-23 21:52:00,59.0,40.0,29.91,SSW,194,3.0,7.0,49,0.00,,,0.04,,2013-03-23 19:52:00,
2013-03-23 22:00:00,59.0,40.0,29.91,West,267,3.0,7.0,50,0.00,,,0.04,,2013-03-23 20:00:00,
2013-03-23 22:02:00,59.0,40.0,29.91,SSW,194,3.0,7.0,49,0.00,,,0.04,,2013-03-23 20:02:00,
2013-03-23 22:12:00,59.0,40.0,29.91,SSW,194,3.0,7.0,49,0.00,,,0.04,,2013-03-23 20:12:00,
2013-03-23 22:22:00,59.0,40.0,29.91,West,267,3.0,7.0,50,0.00,,,0.04,,2013-03-23 20:22:00,
2013-03-23 22:32:00,59.0,40.0,29.91,West,267,3.0,7.0,50,0.00,,,0.04,,2013-03-23 20:32:00,
2013-03-23 22:43:00,59.0,40.0,29.91,West,267,3.0,7.0,50,0.00,,,0.04,,2013-03-23 20:43:00,
2013-03-23 22:52:00,59.0,40.0,29.91,West,267,3.0,7.0,50,0.00,,,0.04,,2013-03-23 20:52:00,
2013-03-23 23:22:00,59.0,41.0,29.91,NNW,330,3.0,6.0,52,0.00,,,0.04,,2013-03-23 21:22:00,
2013-03-23 23:33:00,59.0,41.0,29.91,NNW,330,3.0,6.0,52,0.00,,,0.04,,2013-03-23 21:33:00,
2013-03-23 23:43:00,59.0,41.0,29.91,NNW,330,3.0,6.0,52,0.00,,,0.04,,2013-03-23 21:43:00,
2013-03-23 23:53:00,59.0,41.0,29.94,NE,39,1.0,6.0,52,0.00,,,0.04,,2013-03-23 21:53:00,